Time;durP1;ratioP1;P1;durP2;ratioP2;P2;SDS_P1;SDS_P2;PMS_P1;PMS_P2;Temp;Humidity;BMP_temperature;BMP_pressure;BME280_temperature;BME280_humidity;BME280_pressure;Samples;Min_cycle;Max_cycle;Signal;HPM_P1;HPM_P2
2022/10/05 00:01:44;;;;;;;;;18.50;15.25;;;;;14.32;81.19;101155.81;5094826;27;45364;-89
2022/10/05 00:04:17;;;;;;;;;19.25;18.25;;;;;14.28;81.53;101152.34;5109791;27;45417;-89
2022/10/05 00:07:01;;;;;;;;;16.00;16.00;;;;;13.77;82.47;101084.56;5093581;27;48097;-89
2022/10/05 00:09:29;;;;;;;;;19.25;17.00;;;;;14.10;82.56;101139.53;5095062;27;45516;-89
2022/10/05 00:11:55;;;;;;;;;20.50;19.75;;;;;13.98;83.08;101143.38;5081532;27;45275;-88
2022/10/05 00:14:33;;;;;;;;;24.00;20.50;;;;;13.74;83.64;101091.72;5083686;27;45293;-89
2022/10/05 00:17:00;;;;;;;;;19.25;17.50;;;;;14.07;83.66;101147.59;5082024;27;45394;-88
2022/10/05 00:19:38;;;;;;;;;15.75;15.00;;;;;14.09;83.46;101145.75;5077215;27;45574;-89
2022/10/05 00:22:14;;;;;;;;;16.50;14.75;;;;;12.96;83.30;100966.09;5081896;27;45458;-89
2022/10/05 00:24:39;;;;;;;;;12.25;10.75;;;;;13.33;83.63;101039.59;5114871;27;45258;-89
2022/10/05 00:27:25;;;;;;;;;16.50;15.50;;;;;13.84;83.54;101115.34;5085154;27;45595;-88
2022/10/05 00:29:56;;;;;;;;;20.00;18.00;;;;;13.55;83.93;101073.59;5076113;28;45916;-89
2022/10/05 00:32:21;;;;;;;;;16.75;14.50;;;;;13.39;83.96;101037.69;5078491;28;45472;-88
2022/10/05 00:34:47;;;;;;;;;14.25;13.75;;;;;13.07;83.76;100986.22;5100853;27;45425;-88
2022/10/05 00:37:12;;;;;;;;;16.50;16.50;;;;;12.75;83.75;100942.75;5104439;27;47238;-88
2022/10/05 00:39:39;;;;;;;;;17.00;15.25;;;;;13.48;83.85;101066.66;5092825;27;46169;-88
2022/10/05 00:42:26;;;;;;;;;19.00;15.75;;;;;13.85;83.59;101127.75;5109268;27;45495;-88
2022/10/05 00:45:01;;;;;;;;;16.50;12.25;;;;;13.28;84.23;101037.91;5098794;27;45453;-89
2022/10/05 00:47:54;;;;;;;;;17.50;13.00;;;;;13.77;84.39;101134.13;5097980;27;47103;-88
2022/10/05 00:50:42;;;;;;;;;16.50;15.50;;;;;13.06;84.20;101022.50;5097552;27;45315;-89
2022/10/05 00:53:38;;;;;;;;;12.00;12.00;;;;;13.62;84.04;101123.00;5115111;27;45417;-89
2022/10/05 00:56:17;;;;;;;;;12.75;11.50;;;;;13.65;84.00;101130.88;5098941;27;45418;-89
2022/10/05 00:58:58;;;;;;;;;14.75;14.00;;;;;13.14;83.48;101052.38;5115055;27;46985;-88
2022/10/05 01:01:32;;;;;;;;;10.25;9.00;;;;;13.55;83.37;101124.03;5097239;27;45393;-88
2022/10/05 01:04:20;;;;;;;;;9.25;9.25;;;;;13.52;84.04;101128.56;5099734;27;45349;-89
2022/10/05 01:07:03;;;;;;;;;12.75;10.00;;;;;12.97;83.97;101062.53;5122605;27;45601;-88
2022/10/05 01:10:05;;;;;;;;;12.50;11.25;;;;;13.42;83.75;101128.78;5119374;27;46973;-85
2022/10/05 01:12:33;;;;;;;;;12.25;11.50;;;;;13.45;83.45;101127.81;5097393;27;45396;-85
2022/10/05 01:15:40;;;;;;;;;12.75;11.25;;;;;13.46;83.87;101138.41;5096126;27;45259;-86
2022/10/05 01:18:26;;;;;;;;;6.00;6.00;;;;;13.04;84.00;101064.13;5053872;28;45683;-86
2022/10/05 01:21:11;;;;;;;;;15.75;12.50;;;;;13.36;83.61;101134.22;5053486;28;45503;-86
2022/10/05 01:24:07;;;;;;;;;10.50;10.50;;;;;12.76;83.46;101030.22;5057657;28;45431;-88
2022/10/05 01:26:40;;;;;;;;;18.00;15.00;;;;;13.28;83.68;101123.72;5054501;28;45604;-88
2022/10/05 01:29:27;;;;;;;;;14.00;10.00;;;;;13.23;83.92;101115.00;5041582;28;45406;-88
2022/10/05 01:31:52;;;;;;;;;10.00;10.00;;;;;13.25;84.57;101125.59;5072171;28;47323;-89
2022/10/05 01:34:40;;;;;;;;;13.50;13.50;;;;;12.75;83.93;101039.13;5055032;28;45421;-88
2022/10/05 01:37:24;;;;;;;;;12.00;12.00;;;;;13.30;84.65;101118.38;5037834;28;45383;-85
2022/10/05 01:40:22;;;;;;;;;8.25;8.00;;;;;13.21;84.32;101106.22;5052626;28;45569;-85
2022/10/05 01:42:52;;;;;;;;;10.75;7.75;;;;;13.32;83.97;101122.75;5053568;28;45569;-85
2022/10/05 01:45:54;;;;;;;;;12.25;10.50;;;;;13.33;84.23;101113.94;5053895;28;45446;-85
2022/10/05 01:48:44;;;;;;;;;12.25;11.50;;;;;13.06;83.91;101078.22;5071893;28;45454;-85
2022/10/05 01:51:36;;;;;;;;;11.25;11.00;;;;;13.35;83.71;101116.53;5062169;28;45554;-85
2022/10/05 01:54:21;;;;;;;;;10.75;10.75;;;;;13.29;84.20;101108.69;5073938;27;46490;-85
2022/10/05 01:57:12;;;;;;;;;11.00;11.00;;;;;13.21;84.44;101114.19;5106902;27;45602;-85
2022/10/05 02:00:09;;;;;;;;;8.25;8.25;;;;;13.19;84.13;101104.50;5094735;27;45328;-86
2022/10/05 02:02:38;;;;;;;;;14.00;13.00;;;;;13.10;84.50;101094.94;5104720;27;45633;-86
2022/10/05 02:05:13;;;;;;;;;12.00;12.00;;;;;13.17;84.58;101099.22;5110190;27;46371;-85
2022/10/05 02:07:44;;;;;;;;;16.25;14.75;;;;;13.10;84.62;101094.94;5097999;27;45491;-85
2022/10/05 02:10:21;;;;;;;;;12.00;12.00;;;;;13.12;84.46;101101.13;5095216;27;45478;-85
2022/10/05 02:12:53;;;;;;;;;12.00;12.00;;;;;12.96;83.90;101058.97;5096082;27;45405;-85
2022/10/05 02:15:22;;;;;;;;;11.75;10.00;;;;;11.99;83.90;100901.13;5094420;27;47297;-86
2022/10/05 02:17:51;;;;;;;;;8.00;8.00;;;;;12.83;83.80;101022.16;5097325;27;45470;-85
2022/10/05 02:20:26;;;;;;;;;7.75;7.75;;;;;13.01;83.30;101036.78;5086873;27;45512;-86
2022/10/05 02:23:01;;;;;;;;;8.00;7.50;;;;;12.30;82.65;100916.34;5096515;27;45614;-85
2022/10/05 02:25:31;;;;;;;;;9.00;9.00;;;;;13.15;81.98;101054.13;5097233;27;45456;-87
2022/10/05 02:28:33;;;;;;;;;4.00;4.00;;;;;12.96;81.82;101024.47;5095054;27;45832;-85
2022/10/05 02:31:11;;;;;;;;;10.00;9.00;;;;;13.00;82.42;101033.25;5051873;28;45483;-85
2022/10/05 02:33:36;;;;;;;;;6.25;6.25;;;;;12.71;82.02;100972.91;5025111;28;45568;-85
2022/10/05 02:36:30;;;;;;;;;6.00;6.00;;;;;13.23;82.65;101079.63;5033252;28;46472;-85
2022/10/05 02:39:08;;;;;;;;;10.25;6.75;;;;;13.21;82.46;101066.41;5033660;28;45363;-85
2022/10/05 02:41:50;;;;;;;;;7.75;7.75;;;;;13.21;82.58;101061.09;5046411;28;45575;-85
2022/10/05 02:44:46;;;;;;;;;6.00;6.00;;;;;12.79;82.63;100993.03;5052203;28;45467;-85
2022/10/05 02:47:21;;;;;;;;;8.25;8.25;;;;;13.17;83.04;101059.41;4992258;28;46889;-86
2022/10/05 02:49:52;;;;;;;;;10.75;7.00;;;;;13.19;82.46;101062.88;4975530;28;45563;-86
2022/10/05 02:52:33;;;;;;;;;6.75;6.75;;;;;12.89;82.52;101003.44;4992350;28;45315;-86
2022/10/05 02:55:12;;;;;;;;;9.50;7.75;;;;;12.39;82.14;100926.75;4978262;28;44893;-89
2022/10/05 02:58:03;;;;;;;;;7.25;7.25;;;;;13.10;82.68;101053.38;4992380;28;46138;-88
2022/10/05 03:00:40;;;;;;;;;7.50;6.50;;;;;13.08;82.79;101054.31;4978289;28;45569;-89
2022/10/05 03:03:40;;;;;;;;;3.25;3.25;;;;;13.06;82.74;101050.84;4971467;28;45394;-88
2022/10/05 03:06:22;;;;;;;;;8.50;8.00;;;;;12.97;83.05;101051.91;5014433;28;45591;-88
2022/10/05 03:09:01;;;;;;;;;6.00;6.00;;;;;13.00;82.61;101053.59;5044402;28;46774;-86
2022/10/05 03:11:46;;;;;;;;;7.00;7.00;;;;;13.03;82.87;101050.91;5034684;28;45492;-85
2022/10/05 03:14:42;;;;;;;;;9.00;8.25;;;;;13.01;82.32;101058.88;5052751;28;45460;-86
2022/10/05 03:17:16;;;;;;;;;7.00;7.00;;;;;12.51;82.31;100963.63;5035699;28;45388;-85
2022/10/05 03:20:15;;;;;;;;;6.75;6.25;;;;;13.04;82.01;101047.31;5037165;28;45437;-86
2022/10/05 03:22:50;;;;;;;;;8.50;7.50;;;;;12.83;82.18;101016.84;5020364;28;45507;-85
2022/10/05 03:25:35;;;;;;;;;7.50;6.25;;;;;12.90;81.87;101039.69;5073211;28;45295;-85
2022/10/05 03:28:00;;;;;;;;;2.50;2.50;;;;;12.91;81.96;101037.00;5077275;28;45315;-85
2022/10/05 03:30:36;;;;;;;;;2.00;2.00;;;;;12.66;82.01;101003.94;5098231;27;47119;-87
2022/10/05 03:33:13;;;;;;;;;10.50;7.75;;;;;12.86;82.03;101028.28;5099452;27;45355;-88
2022/10/05 03:36:00;;;;;;;;;6.50;6.50;;;;;12.06;81.73;100892.16;5101438;27;45480;-88
2022/10/05 03:38:50;;;;;;;;;6.00;6.00;;;;;12.80;82.17;101031.91;5101147;27;45443;-88
2022/10/05 03:41:37;;;;;;;;;8.25;8.25;;;;;12.82;82.36;101031.03;5118308;27;47375;-88
2022/10/05 03:44:40;;;;;;;;;6.00;5.25;;;;;12.74;82.37;101023.25;5115076;27;45610;-88
2022/10/05 03:47:15;;;;;;;;;7.25;7.25;;;;;12.69;82.65;101022.44;5098381;27;45402;-88
2022/10/05 03:50:18;;;;;;;;;6.00;6.00;;;;;12.57;83.22;101019.16;5099608;27;45316;-87
2022/10/05 03:52:54;;;;;;;;;7.25;6.75;;;;;12.19;83.56;100975.78;5035588;28;47521;-87
2022/10/05 03:55:53;;;;;;;;;8.75;7.00;;;;;12.39;84.58;101019.53;5032349;28;46049;-88
2022/10/05 03:58:27;;;;;;;;;8.75;8.00;;;;;11.84;84.25;100929.63;5013471;28;45564;-88
2022/10/05 04:00:58;;;;;;;;;5.00;5.00;;;;;12.12;84.30;100974.16;5035646;28;45402;-88
2022/10/05 04:03:31;;;;;;;;;6.00;4.25;;;;;12.40;84.50;101018.63;5017536;28;47155;-88
2022/10/05 04:06:25;;;;;;;;;9.50;8.00;;;;;12.40;84.35;101023.94;5016927;28;45691;-88
2022/10/05 04:08:56;;;;;;;;;8.25;6.50;;;;;12.39;84.07;101023.06;5014208;28;45475;-87
2022/10/05 04:11:36;;;;;;;;;9.75;8.25;;;;;12.30;85.12;101022.38;5017158;28;45461;-89
2022/10/05 04:14:20;;;;;;;;;8.00;8.00;;;;;12.24;85.22;101026.03;4999493;28;47107;-89
2022/10/05 04:16:56;;;;;;;;;12.25;12.25;;;;;11.41;85.26;100898.66;5032761;28;45488;-88
2022/10/05 04:19:40;;;;;;;;;10.75;9.25;;;;;11.83;85.97;100988.78;5003020;28;45331;-88
2022/10/05 04:22:22;;;;;;;;;10.50;10.50;;;;;11.50;85.87;100922.31;5017900;28;45308;-85
2022/10/05 04:24:53;;;;;;;;;10.25;6.50;;;;;12.07;85.81;101024.59;5017728;28;47686;-85
2022/10/05 04:27:23;;;;;;;;;9.50;8.50;;;;;11.55;86.17;100938.09;5034938;28;45824;-85
2022/10/05 04:30:04;;;;;;;;;11.00;8.75;;;;;11.91;86.59;101000.09;5050368;28;45377;-85
2022/10/05 04:32:40;;;;;;;;;4.00;4.00;;;;;11.99;86.42;101013.25;5076915;27;45394;-85
2022/10/05 04:35:08;;;;;;;;;8.00;8.00;;;;;11.96;86.42;101025.69;5097759;27;45636;-86
2022/10/05 04:37:52;;;;;;;;;9.50;9.25;;;;;11.88;87.40;101021.34;5098921;27;45375;-85
2022/10/05 04:40:29;;;;;;;;;9.50;6.75;;;;;11.10;87.44;100893.03;5079375;27;45319;-88
2022/10/05 04:43:00;;;;;;;;;8.75;7.00;;;;;11.82;87.15;101013.53;5081814;27;45612;-88
2022/10/05 04:46:04;;;;;;;;;10.00;6.50;;;;;11.82;87.76;101007.38;5079882;27;48075;-88
2022/10/05 04:48:36;;;;;;;;;8.50;8.50;;;;;10.81;87.74;100855.63;5080008;27;45501;-88
2022/10/05 04:51:27;;;;;;;;;7.00;7.00;;;;;11.76;87.37;101000.41;5094272;27;45325;-88
2022/10/05 04:54:26;;;;;;;;;10.75;9.25;;;;;11.68;87.78;101002.31;5099864;27;45275;-88
2022/10/05 04:56:57;;;;;;;;;8.00;8.00;;;;;11.69;88.01;101004.03;5108108;27;47292;-87
2022/10/05 04:59:51;;;;;;;;;4.25;4.25;;;;;11.11;88.31;100911.53;5109833;27;45585;-87
2022/10/05 05:02:28;;;;;;;;;5.00;5.00;;;;;10.59;88.51;100823.34;5096614;27;45528;-88
2022/10/05 05:05:16;;;;;;;;;7.00;7.00;;;;;11.34;88.70;100971.13;5117424;27;45409;-88
2022/10/05 05:07:48;;;;;;;;;11.00;10.00;;;;;11.51;89.34;100995.53;5109190;27;45461;-88
2022/10/05 05:10:51;;;;;;;;;11.25;11.25;;;;;11.48;89.31;100995.59;5082602;27;45532;-88
2022/10/05 05:13:49;;;;;;;;;7.00;7.00;;;;;11.49;89.32;100992.06;5062267;28;45243;-88
2022/10/05 05:16:37;;;;;;;;;7.75;7.25;;;;;10.83;89.07;100888.19;5054075;27;45379;-88
2022/10/05 05:19:40;;;;;;;;;9.25;8.25;;;;;11.40;90.14;100984.25;5066434;27;48093;-88
2022/10/05 05:22:39;;;;;;;;;6.50;6.50;;;;;11.37;90.30;100992.25;5080802;27;45553;-88
2022/10/05 05:25:38;;;;;;;;;9.00;5.75;;;;;11.33;90.71;100988.78;5079523;27;45475;-88
2022/10/05 05:28:16;;;;;;;;;8.25;8.25;;;;;11.34;90.59;100981.69;5079877;27;45355;-88
2022/10/05 05:30:56;;;;;;;;;9.25;9.25;;;;;10.98;90.82;100937.31;5080150;27;47426;-89
2022/10/05 05:33:48;;;;;;;;;9.00;9.00;;;;;11.07;90.50;100940.69;5097945;27;46564;-88
2022/10/05 05:36:46;;;;;;;;;7.75;7.75;;;;;11.27;90.94;100974.78;5102710;27;45518;-88
2022/10/05 05:39:37;;;;;;;;;8.50;8.00;;;;;11.05;90.57;100938.06;5083230;27;45414;-88
2022/10/05 05:42:20;;;;;;;;;8.25;7.50;;;;;10.38;90.61;100826.34;5076752;27;46781;-89
2022/10/05 05:44:50;;;;;;;;;6.50;6.50;;;;;10.95;90.55;100910.06;5096728;27;45491;-89
2022/10/05 05:47:39;;;;;;;;;8.25;8.25;;;;;11.31;90.43;100982.66;5079191;27;45330;-87
2022/10/05 05:50:22;;;;;;;;;11.25;8.25;;;;;11.32;90.49;100972.94;5106611;27;45268;-88
2022/10/05 05:53:16;;;;;;;;;8.25;7.00;;;;;11.28;90.68;100974.75;5100562;27;48271;-89
2022/10/05 05:55:47;;;;;;;;;9.50;9.25;;;;;11.26;90.81;100979.19;5104155;27;45331;-87
2022/10/05 05:58:18;;;;;;;;;7.00;7.00;;;;;11.25;90.88;100971.28;5077458;28;45412;-88
2022/10/05 06:00:47;;;;;;;;;6.25;6.25;;;;;10.77;90.78;100901.50;5059434;28;45362;-87
2022/10/05 06:03:24;;;;;;;;;7.75;7.75;;;;;10.83;90.96;100911.13;5118668;27;46792;-89
2022/10/05 06:05:58;;;;;;;;;7.50;7.50;;;;;10.31;90.47;100817.63;5117353;27;45338;-89
2022/10/05 06:08:34;;;;;;;;;11.25;7.75;;;;;10.66;90.09;100856.72;5100180;27;45461;-88
2022/10/05 06:11:15;;;;;;;;;8.75;6.00;;;;;10.74;89.88;100875.13;5117938;27;45378;-89
2022/10/05 06:13:41;;;;;;;;;6.50;6.50;;;;;11.40;89.69;100978.94;5062247;28;47268;-89
2022/10/05 06:16:21;;;;;;;;;9.00;7.00;;;;;11.43;89.84;100976.25;5058642;28;45418;-90
2022/10/05 06:19:03;;;;;;;;;9.75;7.00;;;;;11.01;89.28;100905.53;5077254;28;45323;-89
2022/10/05 06:21:44;;;;;;;;;5.00;5.00;;;;;11.38;89.08;100955.16;5082178;27;45672;-89
2022/10/05 06:24:34;;;;;;;;;9.25;8.25;;;;;11.61;88.55;100972.41;5098041;27;48254;-89
2022/10/05 06:27:03;;;;;;;;;8.00;8.00;;;;;11.63;87.79;100977.69;5096708;27;45372;-89
2022/10/05 06:30:03;;;;;;;;;9.50;9.50;;;;;11.40;87.14;100891.63;5079327;27;45441;-89
2022/10/05 06:32:35;;;;;;;;;9.75;9.75;;;;;11.92;86.33;100977.16;5036751;28;45347;-89
2022/10/05 06:35:38;;;;;;;;;8.75;8.75;;;;;11.87;86.51;100979.91;5017292;28;47026;-89
2022/10/05 06:38:31;;;;;;;;;7.75;7.25;;;;;11.47;85.84;100909.13;5033501;28;45766;-88
2022/10/05 06:41:03;;;;;;;;;8.75;8.25;;;;;12.20;84.97;100988.09;5034202;28;45362;-89
2022/10/05 06:43:54;;;;;;;;;14.25;11.25;;;;;12.16;82.73;100896.34;5033461;28;45603;-91
2022/10/05 06:46:47;;;;;;;;;14.75;14.75;;;;;12.79;81.57;100974.47;5034205;28;46642;-88
2022/10/05 06:49:15;;;;;;;;;16.50;12.75;;;;;12.58;82.23;100975.81;5034199;28;45460;-88
2022/10/05 06:51:51;;;;;;;;;11.25;11.25;;;;;12.61;82.44;100981.06;5037650;28;45374;-88
2022/10/05 06:54:33;;;;;;;;;12.75;12.50;;;;;12.60;82.11;100974.03;5055722;28;45412;-88
2022/10/05 06:57:23;;;;;;;;;16.25;14.50;;;;;12.05;83.07;100898.34;5033940;28;47286;-88
2022/10/05 06:59:59;;;;;;;;;13.25;13.25;;;;;12.60;82.83;100967.81;5021578;28;45811;-86
2022/10/05 07:02:32;;;;;;;;;18.00;18.00;;;;;12.58;81.54;100900.72;5026635;28;45316;-88
2022/10/05 07:05:03;;;;;;;;;19.50;17.50;;;;;13.50;79.16;100961.31;5045542;28;44806;-88
2022/10/05 07:08:00;;;;;;;;;16.50;14.25;;;;;13.17;80.29;100958.56;5041924;28;46926;-88
2022/10/05 07:10:30;;;;;;;;;16.25;15.00;;;;;12.86;81.15;100911.56;5086432;27;45266;-86
2022/10/05 07:13:16;;;;;;;;;17.25;16.75;;;;;13.16;80.46;100967.41;5079234;27;45272;-87
2022/10/05 07:16:06;;;;;;;;;15.50;14.50;;;;;13.25;80.82;100967.19;5077479;27;45339;-85
2022/10/05 07:18:45;;;;;;;;;13.00;12.00;;;;;12.87;80.35;100880.59;5077528;27;46073;-85
2022/10/05 07:21:40;;;;;;;;;16.25;13.25;;;;;13.57;80.22;100973.50;5100438;27;45538;-86
2022/10/05 07:24:26;;;;;;;;;17.00;17.00;;;;;13.50;78.58;100940.94;5074884;28;45346;-86
2022/10/05 07:27:06;;;;;;;;;13.25;9.00;;;;;13.97;77.74;100980.41;5074257;28;45512;-86
2022/10/05 07:29:57;;;;;;;;;20.00;14.50;;;;;14.21;76.52;100975.28;5074683;28;47325;-85
2022/10/05 07:32:39;;;;;;;;;15.75;13.75;;;;;13.93;75.95;100843.22;5076870;27;45581;-86
2022/10/05 07:38:31;;;;;;;;;14.75;13.75;;;;;15.21;73.53;100984.69;5096941;27;45397;-87
2022/10/05 07:41:47;;;;;;;;;16.00;14.25;;;;;15.36;73.74;100978.00;5106134;27;46930;-86
2022/10/05 07:44:21;;;;;;;;;13.75;12.50;;;;;15.34;72.70;100906.16;5061254;27;45536;-85
2022/10/05 07:47:05;;;;;;;;;19.00;17.50;;;;;16.01;69.89;100989.97;5081985;27;45291;-85
2022/10/05 07:49:44;;;;;;;;;14.75;13.25;;;;;16.08;70.37;100983.50;5090150;27;45587;-86
2022/10/05 07:52:15;;;;;;;;;14.00;13.00;;;;;16.39;70.27;100992.16;5076896;27;46135;-86
2022/10/05 07:55:08;;;;;;;;;14.25;12.50;;;;;16.73;70.01;100997.06;5070224;28;45429;-86
2022/10/05 07:57:59;;;;;;;;;13.25;12.00;;;;;16.57;69.23;100907.91;5053623;28;45394;-87
2022/10/05 08:00:42;;;;;;;;;15.00;14.50;;;;;17.27;66.77;100970.06;5075443;28;45181;-86
2022/10/05 08:03:22;;;;;;;;;9.50;8.25;;;;;17.65;66.13;100971.09;5080401;28;47412;-85
2022/10/05 08:05:48;;;;;;;;;11.75;10.00;;;;;18.15;64.45;100955.59;5076393;28;45626;-86
2022/10/05 08:08:39;;;;;;;;;10.00;9.75;;;;;19.13;62.02;100977.72;5048583;28;45849;-86
2022/10/05 08:11:13;;;;;;;;;10.00;8.00;;;;;20.34;58.75;100910.63;5056109;28;45691;-89
2022/10/05 08:14:05;;;;;;;;;10.50;8.00;;;;;21.82;56.25;100920.88;5072086;28;48217;-89
2022/10/05 08:16:36;;;;;;;;;7.75;6.00;;;;;23.32;53.06;100975.97;5059929;28;45372;-90
2022/10/05 08:19:16;;;;;;;;;6.25;6.00;;;;;23.98;50.06;100910.34;5059688;28;45557;-90
2022/10/05 08:21:54;;;;;;;;;5.75;5.75;;;;;24.67;48.42;100893.69;5075126;28;45397;-90
2022/10/05 08:24:45;;;;;;;;;4.50;3.75;;;;;25.46;47.71;100931.91;5045561;28;46153;-89
2022/10/05 08:27:33;;;;;;;;;5.00;4.75;;;;;26.05;45.15;100953.47;5063382;28;45470;-90
2022/10/05 08:30:03;;;;;;;;;7.25;6.75;;;;;25.77;44.39;100837.50;5078779;28;45315;-91
2022/10/05 08:32:50;;;;;;;;;4.75;2.00;;;;;26.21;43.67;100919.72;5062138;28;45474;-90
2022/10/05 08:35:29;;;;;;;;;4.00;4.00;;;;;26.08;43.83;100962.31;5063652;28;47157;-90
2022/10/05 08:37:56;;;;;;;;;4.25;4.00;;;;;25.23;43.19;100904.75;5086945;28;45430;-91
2022/10/05 08:41:02;;;;;;;;;4.50;4.25;;;;;25.16;45.51;100982.78;5064976;28;45352;-90
2022/10/05 08:44:05;;;;;;;;;6.00;5.00;;;;;24.85;45.75;100983.34;5015131;28;45363;-90
2022/10/05 08:46:40;;;;;;;;;4.75;4.75;;;;;24.20;47.51;100983.44;5022356;28;48183;-90
2022/10/05 08:49:49;;;;;;;;;6.25;5.00;;;;;22.85;48.17;100897.28;5027611;28;45729;-90
2022/10/05 08:52:24;;;;;;;;;5.75;4.50;;;;;22.78;49.86;100979.47;5035438;28;45789;-90
2022/10/05 08:54:50;;;;;;;;;4.25;4.25;;;;;22.12;51.17;100980.94;5017745;28;45440;-90
2022/10/05 08:57:45;;;;;;;;;5.00;5.00;;;;;21.67;52.36;100988.16;5029214;28;47560;-90
2022/10/05 09:00:17;;;;;;;;;4.75;4.75;;;;;20.97;53.99;100957.28;5015314;28;45471;-90
2022/10/05 09:03:03;;;;;;;;;5.75;5.25;;;;;20.84;54.92;100996.53;5030632;28;45308;-90
2022/10/05 09:05:34;;;;;;;;;6.75;6.00;;;;;20.42;55.95;101005.03;5005915;28;45791;-90
2022/10/05 09:08:09;;;;;;;;;4.75;4.75;;;;;20.06;57.09;101002.53;5015771;28;48211;-88
2022/10/05 09:10:47;;;;;;;;;4.00;3.00;;;;;19.79;58.15;100997.66;5019204;28;45399;-90
2022/10/05 09:13:34;;;;;;;;;6.75;5.00;;;;;19.51;59.16;101000.84;5034922;28;45362;-88
2022/10/05 09:16:38;;;;;;;;;5.50;5.50;;;;;18.83;60.07;100911.28;5043675;28;45630;-87
2022/10/05 09:19:22;;;;;;;;;5.50;5.50;;;;;19.33;60.23;101008.88;5028861;28;45612;-87
2022/10/05 09:22:25;;;;;;;;;9.00;6.00;;;;;19.17;60.78;100999.84;5080811;28;45398;-88
2022/10/05 09:25:02;;;;;;;;;5.50;5.50;;;;;19.07;60.61;101001.25;5073736;28;45350;-88
2022/10/05 09:27:37;;;;;;;;;8.00;6.25;;;;;18.92;60.62;100974.28;5080753;28;45669;-88
2022/10/05 09:30:25;;;;;;;;;7.25;7.25;;;;;18.90;60.49;100935.97;5062454;28;47088;-89
2022/10/05 09:33:01;;;;;;;;;5.50;5.00;;;;;19.44;59.84;101000.28;5051393;28;45514;-89
2022/10/05 09:35:58;;;;;;;;;5.75;5.75;;;;;19.38;59.20;101005.97;5061895;28;45298;-88
2022/10/05 09:38:34;;;;;;;;;8.75;6.25;;;;;18.57;58.96;100859.03;5060739;28;45613;-88
2022/10/05 09:41:18;;;;;;;;;5.50;5.50;;;;;19.60;59.53;101011.13;5069523;28;45353;-89
2022/10/05 09:44:05;;;;;;;;;6.00;6.00;;;;;19.80;58.76;101006.53;5059661;28;45765;-88
2022/10/05 09:46:46;;;;;;;;;6.25;6.25;;;;;19.95;58.25;101015.63;5073859;28;45417;-89
2022/10/05 09:49:27;;;;;;;;;4.75;4.75;;;;;19.93;57.87;101004.09;5073022;28;45271;-89
2022/10/05 09:52:30;;;;;;;;;4.00;4.00;;;;;19.79;58.37;101015.56;5070336;28;45435;-89
2022/10/05 09:55:18;;;;;;;;;5.50;5.50;;;;;20.25;58.89;101005.06;5079153;27;45866;-89
2022/10/05 09:58:28;;;;;;;;;7.00;6.50;;;;;21.10;55.41;101000.41;5057947;27;45558;-89
2022/10/05 10:00:56;;;;;;;;;3.00;3.00;;;;;21.55;54.32;100995.16;5043773;27;45441;-89
2022/10/05 10:03:59;;;;;;;;;5.00;5.00;;;;;21.58;52.29;100995.00;5074649;27;45477;-90
2022/10/05 10:06:52;;;;;;;;;4.25;4.25;;;;;21.32;52.91;100989.28;5070967;27;45253;-88
2022/10/05 10:09:59;;;;;;;;;4.50;4.50;;;;;20.38;53.81;100922.94;5065506;27;45377;-88
2022/10/05 10:12:55;;;;;;;;;6.00;4.00;;;;;20.18;53.95;100917.81;5063241;27;45443;-88
2022/10/05 10:15:51;;;;;;;;;4.00;4.00;;;;;20.65;54.25;100994.88;5068110;28;47092;-89
2022/10/05 10:18:58;;;;;;;;;4.00;4.00;;;;;20.88;52.73;100992.72;5088358;27;45814;-88
2022/10/05 10:21:48;;;;;;;;;4.00;4.00;;;;;21.11;51.89;100989.56;5010132;28;45581;-89
2022/10/05 10:24:32;;;;;;;;;2.75;2.75;;;;;21.39;51.37;100979.03;4984692;28;45589;-89
2022/10/05 10:27:11;;;;;;;;;3.00;3.00;;;;;21.17;50.02;100914.94;4974341;28;48045;-89
2022/10/05 10:30:17;;;;;;;;;3.75;3.75;;;;;21.74;50.75;100984.16;5010455;28;45493;-89
2022/10/05 10:33:10;;;;;;;;;3.50;2.75;;;;;21.93;50.13;100983.91;5000293;28;45371;-89
2022/10/05 10:35:54;;;;;;;;;2.25;2.25;;;;;21.38;49.09;100885.91;4991169;28;45404;-88
2022/10/05 10:38:34;;;;;;;;;3.50;3.50;;;;;21.41;48.95;100908.09;4987502;28;47270;-89
2022/10/05 10:41:21;;;;;;;;;3.00;3.00;;;;;21.78;49.80;100989.25;4988801;28;45845;-89
2022/10/05 10:44:13;;;;;;;;;3.50;3.50;;;;;21.78;49.74;100988.41;4996118;28;45699;-89
2022/10/05 10:47:13;;;;;;;;;3.75;2.75;;;;;21.94;50.02;100982.94;4989037;28;45666;-88
2022/10/05 10:50:05;;;;;;;;;5.75;5.00;;;;;22.11;49.48;100981.94;4996365;28;47616;-89
2022/10/05 10:53:21;;;;;;;;;4.75;3.75;;;;;22.51;50.64;100974.91;4997163;28;45492;-89
2022/10/05 10:55:58;;;;;;;;;4.00;4.00;;;;;23.11;47.06;100974.69;4978902;28;45402;-89
2022/10/05 10:58:55;;;;;;;;;3.00;3.00;;;;;23.63;46.94;100968.47;5040675;28;45398;-87
2022/10/05 11:01:42;;;;;;;;;3.50;3.25;;;;;23.91;45.49;100959.38;5092269;28;45342;-89
2022/10/05 11:04:38;;;;;;;;;3.25;3.25;;;;;23.93;45.71;100962.81;5070110;28;45523;-88
2022/10/05 11:07:25;;;;;;;;;2.50;2.50;;;;;24.09;45.35;100949.09;5060295;28;45438;-90
2022/10/05 11:10:14;;;;;;;;;4.00;2.75;;;;;24.37;45.35;100946.25;5077214;27;45502;-87
2022/10/05 11:13:13;;;;;;;;;3.25;3.25;;;;;24.40;44.50;100937.91;5077492;27;45789;-88
2022/10/05 11:16:16;;;;;;;;;3.50;3.50;;;;;24.46;44.64;100935.66;5077056;28;45462;-87
2022/10/05 11:19:16;;;;;;;;;5.00;3.75;;;;;24.85;44.39;100930.13;5066220;28;45452;-88
2022/10/05 11:22:06;;;;;;;;;2.75;2.75;;;;;24.83;43.83;100937.50;5080730;28;44849;-88
2022/10/05 11:24:47;;;;;;;;;0.00;0.00;;;;;24.88;43.99;100940.72;5079932;28;46153;-88
2022/10/05 11:27:44;;;;;;;;;3.00;2.00;;;;;24.80;43.39;100929.63;5077481;27;45306;-88
2022/10/05 11:30:29;;;;;;;;;2.00;2.00;;;;;24.71;44.39;100923.06;5176251;22;46357;-87
2022/10/05 11:33:24;;;;;;;;;2.00;2.00;;;;;24.95;43.49;100909.56;5077654;28;45401;-88
2022/10/05 11:36:37;;;;;;;;;2.25;2.25;;;;;24.91;43.16;100908.06;5072451;28;47997;-87
2022/10/05 11:39:35;;;;;;;;;1.00;1.00;;;;;24.80;42.82;100911.56;5099189;27;45361;-87
2022/10/05 11:42:26;;;;;;;;;2.00;2.00;;;;;25.03;42.88;100916.22;5076089;28;45733;-88
2022/10/05 11:44:57;;;;;;;;;2.75;2.75;;;;;25.56;42.72;100916.69;5074099;28;45527;-87
2022/10/05 11:47:30;;;;;;;;;2.75;1.75;;;;;25.84;41.65;100890.13;5071666;28;46832;-86
2022/10/05 11:50:27;;;;;;;;;3.00;3.00;;;;;26.36;40.80;100914.91;5065435;28;45465;-86
2022/10/05 11:53:05;;;;;;;;;2.75;2.00;;;;;26.86;40.76;100914.44;5061073;28;45715;-88
2022/10/05 11:55:43;;;;;;;;;3.50;2.00;;;;;27.28;38.73;100844.00;5075581;28;45434;-88
2022/10/05 11:58:22;;;;;;;;;2.00;2.00;;;;;27.72;36.47;100782.25;5065730;28;47963;-88
2022/10/05 12:01:16;;;;;;;;;2.75;2.75;;;;;29.26;35.91;100907.88;5059272;28;45458;-87
2022/10/05 12:03:57;;;;;;;;;2.00;2.00;;;;;30.02;35.05;100868.88;5061309;28;45422;-88
2022/10/05 12:07:01;;;;;;;;;3.00;2.25;;;;;30.59;33.89;100893.25;5074437;28;45138;-87
2022/10/05 12:09:29;;;;;;;;;2.50;2.50;;;;;31.08;32.64;100903.81;5071889;28;45499;-88
2022/10/05 12:11:58;;;;;;;;;0.00;0.00;;;;;31.66;32.90;100886.91;5069818;28;45470;-87
2022/10/05 12:14:32;;;;;;;;;3.25;3.25;;;;;31.99;31.74;100895.28;5059133;28;45485;-87
2022/10/05 12:17:09;;;;;;;;;1.00;1.00;;;;;32.44;31.36;100879.59;5075311;28;45516;-88
2022/10/05 12:19:46;;;;;;;;;1.00;1.00;;;;;32.10;31.01;100868.66;5058459;28;47224;-91
2022/10/05 12:22:16;;;;;;;;;0.25;0.25;;;;;32.03;31.72;100895.81;5069600;28;45539;-88
2022/10/05 12:25:19;;;;;;;;;2.00;2.00;;;;;31.64;32.64;100891.69;5068073;28;45595;-87
2022/10/05 12:27:49;;;;;;;;;3.75;2.75;;;;;30.50;33.49;100864.19;5061909;28;45391;-87
2022/10/05 12:30:32;;;;;;;;;2.50;2.00;;;;;29.59;34.25;100820.28;5063678;28;47593;-87
2022/10/05 12:33:24;;;;;;;;;2.00;2.00;;;;;29.85;34.33;100882.28;5059777;28;45766;-87
2022/10/05 12:36:04;;;;;;;;;2.75;2.00;;;;;29.32;35.36;100891.84;5071139;27;45727;-87
2022/10/05 12:38:44;;;;;;;;;3.50;3.25;;;;;28.06;36.51;100849.88;5074271;28;45499;-87